Jacksontown, Ohio
Current Conditions -  °F | °C
As of 12:54 AM on Saturday 29 Nov 2014 (Local Time) from KVTA Reporting Station
Clear Clear  
Wind Chill: 31°   Ceiling: Unl
Heat Index: 31°   Visibility: 10mi
Dew Point: 19°   Wind: 3mph
Humidity: 61%   Direction: 150°SSE
Pressure: 30.12"   Gusts: NA
Location:  39.96°N, 82.41°W
Report Text: KVTA 290554Z AUTO 15003KT 10SM CLR M01/M07 A3012 RMK AO2 SLP208 T10061072 11006 21011 56012
Loading
Personal Weather Stations






























Interactive Weather Map New forecast layout! Learn more

10-Day Weather Forecast

Advertisements
Track Severe Weather on mobile